createdAt,value
2019-02-19T00:00:57.365Z,4.99
2019-02-19T00:01:57.840Z,4.91
2019-02-19T00:02:57.275Z,4.92
2019-02-19T00:03:57.264Z,4.86
2019-02-19T00:04:57.244Z,4.95
2019-02-19T00:05:57.224Z,4.94
2019-02-19T00:06:57.231Z,4.96
2019-02-19T00:07:57.178Z,4.91
2019-02-19T00:08:57.182Z,4.92
2019-02-19T00:09:57.184Z,4.91
2019-02-19T00:10:57.130Z,4.95
2019-02-19T00:11:57.181Z,4.88
2019-02-19T00:12:57.171Z,4.95
2019-02-19T00:13:57.123Z,4.99
2019-02-19T00:14:57.104Z,4.98
2019-02-19T00:15:57.100Z,4.83
2019-02-19T00:16:57.103Z,4.89
2019-02-19T00:17:57.105Z,4.80
2019-02-19T00:18:57.054Z,4.77
2019-02-19T00:19:57.265Z,4.79
2019-02-19T00:20:57.151Z,4.79
2019-02-19T00:21:57.215Z,4.76
2019-02-19T00:22:57.124Z,4.80
2019-02-19T00:23:57.300Z,4.76
2019-02-19T00:24:57.209Z,4.79
2019-02-19T00:25:57.113Z,4.73
2019-02-19T00:26:57.095Z,4.80
2019-02-19T00:27:57.053Z,4.86
2019-02-19T00:28:57.115Z,4.75
2019-02-19T00:29:57.080Z,4.73
2019-02-19T00:30:57.049Z,4.76
2019-02-19T00:31:57.131Z,4.76
2019-02-19T00:32:57.066Z,4.75
2019-02-19T00:33:57.067Z,4.72
2019-02-19T00:34:57.117Z,4.72
2019-02-19T00:35:56.947Z,4.73
2019-02-19T00:36:57.010Z,4.69
2019-02-19T00:37:56.993Z,4.79
2019-02-19T00:38:56.977Z,4.67
2019-02-19T00:39:57.099Z,4.69
2019-02-19T00:40:57.028Z,4.73
2019-02-19T00:41:56.890Z,4.67
2019-02-19T00:42:56.898Z,4.69
2019-02-19T00:43:56.903Z,4.72
2019-02-19T00:44:56.836Z,4.70
2019-02-19T00:45:56.919Z,4.73
2019-02-19T00:46:56.847Z,4.77
2019-02-19T00:47:57.214Z,4.70
2019-02-19T00:48:56.854Z,4.72
2019-02-19T00:49:56.908Z,4.80
2019-02-19T00:50:56.923Z,4.65
2019-02-19T00:51:56.858Z,4.70
2019-02-19T00:52:56.891Z,4.70
2019-02-19T00:53:56.803Z,4.76
2019-02-19T00:54:56.865Z,4.72
2019-02-19T00:55:56.824Z,4.73
2019-02-19T00:56:56.799Z,4.77
2019-02-19T00:57:56.978Z,4.76
2019-02-19T00:58:56.856Z,4.80
2019-02-19T00:59:56.689Z,4.76
2019-02-19T01:00:56.721Z,4.79
2019-02-19T01:01:56.623Z,4.83
2019-02-19T01:02:56.704Z,4.80
2019-02-19T01:03:56.784Z,4.75
2019-02-19T01:04:56.718Z,4.83
2019-02-19T01:05:56.622Z,4.77
2019-02-19T01:06:56.690Z,4.73
2019-02-19T01:07:56.772Z,4.70
2019-02-19T01:08:57.424Z,4.75
2019-02-19T01:09:56.708Z,4.80
2019-02-19T01:10:56.629Z,4.99
2019-02-19T01:11:56.766Z,5.16
2019-02-19T01:12:56.920Z,5.23
2019-02-19T01:13:56.664Z,5.40
2019-02-19T01:14:56.559Z,5.52
2019-02-19T01:15:56.690Z,5.60
2019-02-19T01:16:56.559Z,5.70
2019-02-19T01:17:56.653Z,5.64
2019-02-19T01:18:56.641Z,5.66
2019-02-19T01:19:56.720Z,5.67
2019-02-19T01:20:56.521Z,5.67
2019-02-19T01:21:56.531Z,5.75
2019-02-19T01:22:56.532Z,5.66
2019-02-19T01:23:56.509Z,5.75
2019-02-19T01:24:56.908Z,5.70
2019-02-19T01:25:56.435Z,5.68
2019-02-19T01:26:56.663Z,5.73
2019-02-19T01:27:56.444Z,5.71
2019-02-19T01:28:58.260Z,5.77
2019-02-19T01:29:56.726Z,5.75
2019-02-19T01:30:56.457Z,5.95
2019-02-19T01:31:56.413Z,5.86
2019-02-19T01:32:56.518Z,5.91
2019-02-19T01:33:56.509Z,5.91
2019-02-19T01:34:56.567Z,5.93
2019-02-19T01:35:56.357Z,5.89
2019-02-19T01:36:56.419Z,5.89
2019-02-19T01:37:56.297Z,5.95
2019-02-19T01:38:56.405Z,5.91
2019-02-19T01:39:56.401Z,5.98
2019-02-19T01:40:56.369Z,6.00
2019-02-19T01:41:56.420Z,5.96
2019-02-19T01:42:56.389Z,6.00
2019-02-19T01:43:56.225Z,5.93
2019-02-19T01:44:56.475Z,5.96
2019-02-19T01:45:56.472Z,5.91
2019-02-19T01:46:56.306Z,5.96
2019-02-19T01:47:56.352Z,5.91
2019-02-19T01:48:56.292Z,5.93
2019-02-19T01:49:56.212Z,5.89
2019-02-19T01:50:56.355Z,5.93
2019-02-19T01:51:56.273Z,5.88
2019-02-19T01:52:56.347Z,5.88
2019-02-19T01:53:56.363Z,5.82
2019-02-19T01:54:56.099Z,5.82
2019-02-19T01:55:56.163Z,5.82
2019-02-19T01:56:56.150Z,5.82
2019-02-19T01:57:56.176Z,5.95
2019-02-19T01:58:56.025Z,5.93
2019-02-19T01:59:56.040Z,5.92
2019-02-19T02:00:56.075Z,5.91
2019-02-19T02:01:56.380Z,5.88
2019-02-19T02:02:56.078Z,5.92
2019-02-19T02:03:56.208Z,5.83
2019-02-19T02:04:56.258Z,5.82
2019-02-19T02:05:56.167Z,5.86
2019-02-19T02:06:56.205Z,5.91
2019-02-19T02:07:56.174Z,5.81
2019-02-19T02:08:56.107Z,5.93
2019-02-19T02:09:56.012Z,5.91
2019-02-19T02:10:55.979Z,5.93
2019-02-19T02:11:56.218Z,5.91
2019-02-19T02:12:56.046Z,5.92
2019-02-19T02:13:55.889Z,5.81
2019-02-19T02:14:55.970Z,5.82
2019-02-19T02:15:56.004Z,5.92
2019-02-19T02:16:55.996Z,5.92
2019-02-19T02:17:55.939Z,5.86
2019-02-19T02:18:55.894Z,5.93
2019-02-19T02:19:55.842Z,5.91
2019-02-19T02:20:55.914Z,5.86
2019-02-19T02:21:55.947Z,5.78
2019-02-19T02:22:55.883Z,5.82
2019-02-19T02:23:55.933Z,5.85
2019-02-19T02:24:55.819Z,5.85
2019-02-19T02:25:55.673Z,6.00
2019-02-19T02:26:55.692Z,5.96
2019-02-19T02:27:55.650Z,5.83
2019-02-19T02:28:55.651Z,5.88
2019-02-19T02:29:55.681Z,5.89
2019-02-19T02:30:55.623Z,5.92
2019-02-19T02:31:55.648Z,5.91
2019-02-19T02:32:55.608Z,5.89
2019-02-19T02:33:55.590Z,5.89
2019-02-19T02:34:55.579Z,5.96
2019-02-19T02:35:55.577Z,5.98
2019-02-19T02:36:55.570Z,5.92
2019-02-19T02:37:55.575Z,5.95
2019-02-19T02:38:55.540Z,5.95
2019-02-19T02:39:55.526Z,6.00
2019-02-19T02:40:55.512Z,5.98
2019-02-19T02:41:55.595Z,5.91
2019-02-19T02:42:55.492Z,5.98
2019-02-19T02:43:55.532Z,6.07
2019-02-19T02:44:55.482Z,5.98
2019-02-19T02:45:55.485Z,6.00
2019-02-19T02:46:55.463Z,6.03
2019-02-19T02:47:55.467Z,6.07
2019-02-19T02:48:55.429Z,6.13
2019-02-19T02:49:55.416Z,6.09
2019-02-19T02:50:55.412Z,6.13
2019-02-19T02:51:55.408Z,6.16
2019-02-19T02:52:55.402Z,6.16
2019-02-19T02:53:55.399Z,6.28
2019-02-19T02:54:55.375Z,6.26
2019-02-19T02:55:55.354Z,6.21
2019-02-19T02:56:55.346Z,6.28
2019-02-19T02:57:55.353Z,6.36
2019-02-19T02:58:56.171Z,6.40
2019-02-19T02:59:55.314Z,6.38
2019-02-19T03:00:55.303Z,6.36
2019-02-19T03:01:55.292Z,6.47
2019-02-19T03:02:55.289Z,6.43
2019-02-19T03:03:55.297Z,6.46
2019-02-19T03:04:55.257Z,6.44
2019-02-19T03:05:55.270Z,6.56
2019-02-19T03:06:55.235Z,6.54
2019-02-19T03:07:55.239Z,6.59
2019-02-19T03:08:55.247Z,6.53
2019-02-19T03:09:55.211Z,6.58
2019-02-19T03:10:55.199Z,6.65
2019-02-19T03:11:55.237Z,6.58
2019-02-19T03:12:55.169Z,6.58
2019-02-19T03:13:55.202Z,6.62
2019-02-19T03:14:55.155Z,6.62
2019-02-19T03:16:02.287Z,6.56
2019-02-19T03:16:56.134Z,6.58
2019-02-19T03:17:55.144Z,6.63
2019-02-19T03:18:55.113Z,6.58
2019-02-19T03:19:55.123Z,6.56
2019-02-19T03:20:55.121Z,6.58
2019-02-19T03:21:55.080Z,6.58
2019-02-19T03:22:55.068Z,6.62
2019-02-19T03:23:55.100Z,6.56
2019-02-19T03:24:55.078Z,6.56
2019-02-19T03:25:55.034Z,6.69
2019-02-19T03:26:55.055Z,6.58
2019-02-19T03:27:55.011Z,6.63
2019-02-19T03:28:55.011Z,6.69
2019-02-19T03:29:56.749Z,6.58
2019-02-19T03:30:54.993Z,6.59
2019-02-19T03:31:54.994Z,6.62
2019-02-19T03:32:54.966Z,6.56
2019-02-19T03:33:54.956Z,6.54
2019-02-19T03:34:56.667Z,6.56
2019-02-19T03:35:54.935Z,6.54
2019-02-19T03:36:54.927Z,6.59
2019-02-19T03:37:54.912Z,6.63
2019-02-19T03:38:54.895Z,6.59
2019-02-19T03:39:54.933Z,6.56
2019-02-19T03:40:54.874Z,6.54
2019-02-19T03:41:54.881Z,6.62
2019-02-19T03:42:54.848Z,6.63
2019-02-19T03:43:54.842Z,6.59
2019-02-19T03:44:54.882Z,6.68
2019-02-19T03:45:54.833Z,6.62
2019-02-19T03:46:54.816Z,6.72
2019-02-19T03:47:54.801Z,6.66
2019-02-19T03:48:54.807Z,6.71
2019-02-19T03:49:56.675Z,6.72
2019-02-19T03:50:54.782Z,6.68
2019-02-19T03:51:54.757Z,6.76
2019-02-19T03:52:54.757Z,6.72
2019-02-19T03:53:54.760Z,6.73
2019-02-19T03:54:54.731Z,6.71
2019-02-19T03:55:54.746Z,6.83
2019-02-19T03:56:54.749Z,6.76
2019-02-19T03:57:54.752Z,6.81
2019-02-19T03:58:54.693Z,6.72
2019-02-19T03:59:54.670Z,6.77
2019-02-19T04:00:54.697Z,6.80
2019-02-19T04:01:54.660Z,6.76
2019-02-19T04:02:54.658Z,6.77
2019-02-19T04:03:54.645Z,6.80
2019-02-19T04:04:54.622Z,6.77
2019-02-19T04:05:54.643Z,6.77
2019-02-19T04:06:54.600Z,6.79
2019-02-19T04:07:54.592Z,6.77
2019-02-19T04:08:54.580Z,6.71
2019-02-19T04:09:54.626Z,6.76
2019-02-19T04:10:54.553Z,6.69
2019-02-19T04:11:54.565Z,6.69
2019-02-19T04:12:54.536Z,6.69
2019-02-19T04:13:54.526Z,6.71
2019-02-19T04:14:54.534Z,6.72
2019-02-19T04:15:54.505Z,6.66
2019-02-19T04:16:54.520Z,6.77
2019-02-19T04:17:54.481Z,6.73
2019-02-19T04:18:54.495Z,6.63
2019-02-19T04:19:54.459Z,6.61
2019-02-19T04:20:54.456Z,6.62
2019-02-19T04:21:54.471Z,6.76
2019-02-19T04:22:54.432Z,6.76
2019-02-19T04:23:54.423Z,6.71
2019-02-19T04:24:54.439Z,6.62
2019-02-19T04:25:54.401Z,6.69
2019-02-19T04:26:54.414Z,6.61
2019-02-19T04:27:54.440Z,6.62
2019-02-19T04:28:54.392Z,6.72
2019-02-19T04:29:54.354Z,6.61
2019-02-19T04:30:54.362Z,6.62
2019-02-19T04:31:54.416Z,6.61
2019-02-19T04:32:54.359Z,6.62
2019-02-19T04:33:54.312Z,6.59
2019-02-19T04:34:54.298Z,6.68
2019-02-19T04:35:54.297Z,6.62
2019-02-19T04:36:54.280Z,6.71
2019-02-19T04:37:54.297Z,6.59
2019-02-19T04:38:54.261Z,6.76
2019-02-19T04:39:54.247Z,6.62
2019-02-19T04:40:54.239Z,6.76
2019-02-19T04:41:54.236Z,6.72
2019-02-19T04:42:54.246Z,6.76
2019-02-19T04:43:54.209Z,6.61
2019-02-19T04:44:54.206Z,6.61
2019-02-19T04:45:54.221Z,6.61
2019-02-19T04:46:54.181Z,6.63
2019-02-19T04:47:54.195Z,6.63
2019-02-19T04:48:54.157Z,6.65
2019-02-19T04:49:54.146Z,6.68
2019-02-19T04:50:54.141Z,6.61
2019-02-19T04:51:54.122Z,6.59
2019-02-19T04:52:54.111Z,6.59
2019-02-19T04:53:54.124Z,6.72
2019-02-19T04:54:54.103Z,6.62
2019-02-19T04:55:54.088Z,6.63
2019-02-19T04:56:54.073Z,6.62
2019-02-19T04:57:54.064Z,6.69
2019-02-19T04:58:54.047Z,6.79
2019-02-19T04:59:54.059Z,6.62
2019-02-19T05:00:54.023Z,6.58
2019-02-19T05:01:54.020Z,6.66
2019-02-19T05:02:54.021Z,6.73
2019-02-19T05:03:53.992Z,6.65
2019-02-19T05:04:54.002Z,6.62
2019-02-19T05:05:53.981Z,6.65
2019-02-19T05:06:53.961Z,6.65
2019-02-19T05:07:54.556Z,6.69
2019-02-19T05:08:54.307Z,6.76
2019-02-19T05:09:55.340Z,6.77
2019-02-19T05:10:54.068Z,6.77
2019-02-19T05:11:54.334Z,6.73
2019-02-19T05:12:54.335Z,6.72
2019-02-19T05:13:54.173Z,6.71
2019-02-19T05:14:54.490Z,6.71
2019-02-19T05:15:54.048Z,6.71
2019-02-19T05:35:06.342Z,6.71
2019-02-19T05:36:06.663Z,6.73
2019-02-19T05:37:05.788Z,6.71
2019-02-19T05:38:06.227Z,6.80
2019-02-19T05:39:05.689Z,6.80
2019-02-19T05:40:05.705Z,6.77
2019-02-19T05:41:05.676Z,6.71
2019-02-19T05:42:05.796Z,6.77
2019-02-19T05:43:05.589Z,6.71
2019-02-19T05:44:05.597Z,6.81
2019-02-19T05:45:05.583Z,6.76
2019-02-19T05:46:05.630Z,6.72
2019-02-19T05:47:05.535Z,6.76
2019-02-19T05:48:05.585Z,6.72
2019-02-19T05:49:05.634Z,6.76
2019-02-19T05:50:05.585Z,6.71
2019-02-19T05:51:05.586Z,6.81
2019-02-19T05:52:05.500Z,6.76
2019-02-19T05:53:05.616Z,6.72
2019-02-19T05:54:05.566Z,6.76
2019-02-19T05:55:05.455Z,6.76
2019-02-19T05:56:05.685Z,6.72
2019-02-19T05:57:05.472Z,6.73
2019-02-19T05:58:05.595Z,6.73
2019-02-19T05:59:05.571Z,6.76
2019-02-19T06:00:05.400Z,6.76
2019-02-19T06:01:05.568Z,6.73
2019-02-19T06:02:05.660Z,6.69
2019-02-19T06:03:05.489Z,6.73
2019-02-19T06:04:05.542Z,6.79
2019-02-19T06:05:05.983Z,6.76
2019-02-19T06:06:05.428Z,6.71
2019-02-19T06:07:05.539Z,6.65
2019-02-19T06:08:05.453Z,6.72
2019-02-19T06:09:05.573Z,6.72
2019-02-19T06:10:05.590Z,6.73
2019-02-19T06:11:05.472Z,6.62
2019-02-19T06:12:05.604Z,6.71
2019-02-19T06:13:05.598Z,6.63
2019-02-19T06:14:05.545Z,6.69
2019-02-19T06:15:05.410Z,6.63
2019-02-19T06:16:05.511Z,6.68
2019-02-19T06:17:05.450Z,6.63
2019-02-19T06:18:05.465Z,6.56
2019-02-19T06:19:05.498Z,6.62
2019-02-19T10:12:49.497Z,9.42
2019-02-19T10:13:55.760Z,9.53
2019-02-19T10:14:50.928Z,9.53
2019-02-19T10:15:49.131Z,9.58
2019-02-19T10:16:49.331Z,9.50
2019-02-19T10:17:49.481Z,9.56
2019-02-19T10:18:53.186Z,9.53
2019-02-19T10:19:49.646Z,9.57
2019-02-19T10:20:59.685Z,9.68
2019-02-19T10:21:48.953Z,9.60
2019-02-19T10:22:49.512Z,9.56
2019-02-19T10:23:49.546Z,9.66
2019-02-19T10:24:49.313Z,9.60
2019-02-19T10:25:49.678Z,9.76
2019-02-19T10:26:51.611Z,9.79
2019-02-19T10:28:06.908Z,9.83
2019-02-19T10:28:52.597Z,9.88
2019-02-19T10:30:25.039Z,9.89
2019-02-19T10:30:49.527Z,9.89
2019-02-19T10:31:50.270Z,9.97
2019-02-19T11:33:39.078Z,11.32
2019-02-19T11:34:38.919Z,11.24
2019-02-19T11:35:38.714Z,11.31
2019-02-19T11:36:38.889Z,11.27
2019-02-19T11:37:38.818Z,11.21
2019-02-19T11:38:39.109Z,11.17
2019-02-19T11:39:38.735Z,11.20
2019-02-19T11:40:38.874Z,11.19
2019-02-19T11:41:38.622Z,11.25
2019-02-19T11:42:39.216Z,11.20
2019-02-19T11:43:39.001Z,11.13
2019-02-19T11:44:38.573Z,11.21
2019-02-19T11:45:38.560Z,11.21
2019-02-19T11:46:38.679Z,11.19
2019-02-19T11:47:38.921Z,11.21
2019-02-19T11:48:38.761Z,11.24
2019-02-19T11:49:38.572Z,11.31
2019-02-19T11:50:38.570Z,11.39
2019-02-19T11:51:38.530Z,11.53
2019-02-19T11:52:38.513Z,11.68
2019-02-19T11:53:38.450Z,11.68
2019-02-19T11:54:38.391Z,11.72
2019-02-19T11:55:38.362Z,11.82
2019-02-19T11:56:38.393Z,11.72
2019-02-19T11:57:38.353Z,11.74
2019-02-19T11:58:38.483Z,11.71
2019-02-19T11:59:38.346Z,11.72
2019-02-19T12:00:38.545Z,11.68
2019-02-19T12:01:38.271Z,11.57
2019-02-19T12:02:38.302Z,11.57
2019-02-19T12:03:38.598Z,11.52
2019-02-19T12:04:38.329Z,11.50
2019-02-19T12:05:38.361Z,11.47
2019-02-19T12:06:39.597Z,11.43
2019-02-19T12:07:38.307Z,11.36
2019-02-19T12:08:39.286Z,11.28
2019-02-19T12:09:38.346Z,11.28
2019-02-19T12:10:38.223Z,11.19
2019-02-19T12:11:38.691Z,11.16
2019-02-19T12:12:38.288Z,11.09
2019-02-19T12:13:38.371Z,11.14
2019-02-19T12:14:38.389Z,11.13
2019-02-19T12:15:38.402Z,10.96
2019-02-19T12:16:39.272Z,10.98
2019-02-19T12:17:38.428Z,11.01
2019-02-19T12:18:45.828Z,11.03
2019-02-19T12:19:39.605Z,11.14
2019-02-19T12:20:38.305Z,11.14
2019-02-19T12:21:38.252Z,11.16
2019-02-19T12:22:41.073Z,11.25
2019-02-19T12:23:39.372Z,11.17
2019-02-19T12:24:38.547Z,11.17
2019-02-19T12:25:38.494Z,11.17
2019-02-19T12:26:38.423Z,11.11
2019-02-19T12:27:38.240Z,11.11
2019-02-19T12:28:38.400Z,11.09
2019-02-19T12:29:38.842Z,11.13
2019-02-19T12:30:38.747Z,11.14
2019-02-19T12:31:40.787Z,11.06
2019-02-19T12:32:38.117Z,11.13
2019-02-19T12:33:38.198Z,11.02
2019-02-19T12:34:38.449Z,10.98
2019-02-19T12:35:38.144Z,10.96
2019-02-19T12:36:38.318Z,10.95
2019-02-19T12:37:38.639Z,10.95
2019-02-19T12:38:38.740Z,11.02
2019-02-19T12:39:51.843Z,10.98
2019-02-19T12:42:30.251Z,10.98
2019-02-19T12:42:59.196Z,10.99
2019-02-19T12:43:59.182Z,10.99
2019-02-19T12:45:02.434Z,10.91
2019-02-19T12:45:59.390Z,10.92
2019-02-19T12:46:59.111Z,10.95
2019-02-19T12:47:59.072Z,10.99
2019-02-19T12:48:58.988Z,11.09
2019-02-19T12:50:06.246Z,11.07
2019-02-19T12:50:59.344Z,11.20
2019-02-19T12:51:59.194Z,11.17
2019-02-19T12:52:59.101Z,11.25
2019-02-19T12:53:59.237Z,11.27
2019-02-19T12:54:59.258Z,11.25
2019-02-19T12:56:59.053Z,11.31
2019-02-19T12:57:59.415Z,11.24
2019-02-19T12:59:00.066Z,11.28
2019-02-19T13:00:02.757Z,11.28
2019-02-19T13:01:00.192Z,11.25
2019-02-19T13:01:59.079Z,11.19
2019-02-19T13:03:08.709Z,11.21
2019-02-19T13:03:59.221Z,11.21
2019-02-19T13:04:59.224Z,11.20
2019-02-19T13:06:00.905Z,11.21
2019-02-19T13:06:59.124Z,11.13
2019-02-19T13:07:59.229Z,11.16
2019-02-19T13:09:07.810Z,11.16
2019-02-19T13:09:58.953Z,11.24
2019-02-19T13:11:00.040Z,11.21
2019-02-19T13:12:00.657Z,11.31
2019-02-19T13:12:58.722Z,11.25
2019-02-19T13:13:58.845Z,11.32
2019-02-19T13:14:59.148Z,11.24
2019-02-19T13:15:59.449Z,11.25
2019-02-19T13:16:58.936Z,11.16
2019-02-19T13:17:59.188Z,11.21
2019-02-19T13:19:03.562Z,11.17
2019-02-19T13:20:00.543Z,11.10
2019-02-19T13:21:01.992Z,11.06
2019-02-19T13:21:58.761Z,10.99
2019-02-19T13:22:58.985Z,10.95
2019-02-19T13:23:58.978Z,10.96
2019-02-19T13:24:58.816Z,10.83
2019-02-19T13:25:58.806Z,10.83
2019-02-19T13:26:58.683Z,10.83
2019-02-19T13:29:01.930Z,10.77
2019-02-19T13:30:01.083Z,10.77
2019-02-19T13:31:01.888Z,10.71
2019-02-19T13:32:00.288Z,10.78
2019-02-19T13:33:00.121Z,10.73
2019-02-19T13:34:01.093Z,10.65
2019-02-19T13:35:00.144Z,10.63
2019-02-19T13:36:00.153Z,10.65
2019-02-19T13:37:00.160Z,10.62
2019-02-19T13:38:00.112Z,10.66
2019-02-19T13:39:00.180Z,10.68
2019-02-19T13:40:00.299Z,10.74
2019-02-19T13:41:00.243Z,10.76
2019-02-19T13:42:00.005Z,10.95
2019-02-19T13:43:00.096Z,10.92
2019-02-19T13:44:00.013Z,10.91
2019-02-19T13:45:00.321Z,10.99
2019-02-19T13:46:00.327Z,11.03
2019-02-19T13:47:00.297Z,11.10
2019-02-19T13:48:05.738Z,11.11
2019-02-19T13:49:01.069Z,11.10
2019-02-19T13:50:00.217Z,11.07
2019-02-19T13:51:00.016Z,11.03
2019-02-19T13:52:00.132Z,11.10
2019-02-19T13:52:59.921Z,11.09
2019-02-19T13:54:00.052Z,11.10
2019-02-19T13:55:00.233Z,11.06
2019-02-19T13:56:02.286Z,10.92
2019-02-19T13:57:00.163Z,10.89
2019-02-19T13:58:00.025Z,10.83
2019-02-19T13:59:00.299Z,10.78
2019-02-19T14:00:00.475Z,10.78
2019-02-19T14:01:00.385Z,10.80
2019-02-19T14:02:01.186Z,10.66
2019-02-19T14:03:00.422Z,10.66
2019-02-19T14:04:00.245Z,10.71
2019-02-19T14:05:00.867Z,10.66
2019-02-19T14:06:02.051Z,10.58
2019-02-19T14:07:00.054Z,10.70
2019-02-19T14:07:59.891Z,10.63
2019-02-19T14:09:02.055Z,10.66
2019-02-19T14:10:00.291Z,10.56
2019-02-19T14:11:03.254Z,10.63
2019-02-19T14:12:00.113Z,10.56
2019-02-19T14:13:00.901Z,10.56
2019-02-19T14:13:59.984Z,10.56
2019-02-19T14:15:00.295Z,10.58
2019-02-19T14:16:01.000Z,10.60
2019-02-19T14:17:06.392Z,10.59
2019-02-19T14:17:59.635Z,10.60
2019-02-19T17:23:06.622Z,8.37
2019-02-19T17:24:06.463Z,8.39
2019-02-19T17:25:07.146Z,8.39
2019-02-19T17:26:06.348Z,8.39
2019-02-19T17:27:06.327Z,8.40
2019-02-19T17:28:06.308Z,8.33
2019-02-19T17:29:06.285Z,8.37
2019-02-19T17:30:06.296Z,8.36
2019-02-19T17:31:06.299Z,8.30
2019-02-19T17:32:06.260Z,8.21
2019-02-19T17:33:06.321Z,8.25
2019-02-19T17:34:06.252Z,8.17
2019-02-19T17:35:06.225Z,8.04
2019-02-19T17:36:06.255Z,8.10
2019-02-19T17:37:06.209Z,8.02
2019-02-19T17:38:14.414Z,8.03
2019-02-19T17:39:07.211Z,8.02
2019-02-19T17:40:06.174Z,7.84
2019-02-19T17:41:06.180Z,7.89
2019-02-19T17:42:06.193Z,7.90
2019-02-19T17:43:06.143Z,7.85
2019-02-19T17:44:06.134Z,7.82
2019-02-19T17:45:06.122Z,7.81
2019-02-19T17:46:06.124Z,7.74
2019-02-19T17:47:06.126Z,7.75
2019-02-19T17:48:06.135Z,7.75
2019-02-19T17:49:06.079Z,7.69
2019-02-19T17:50:06.074Z,7.79
2019-02-19T17:51:06.193Z,7.71
2019-02-19T17:52:06.070Z,7.74
2019-02-19T17:53:06.048Z,7.71
2019-02-19T17:54:06.025Z,7.67
2019-02-19T17:55:06.015Z,7.69
2019-02-19T17:56:06.079Z,7.60
2019-02-19T17:57:06.017Z,7.58
2019-02-19T17:58:05.991Z,7.56
2019-02-19T17:59:06.011Z,7.53
2019-02-19T18:00:05.977Z,7.49
2019-02-19T18:01:05.953Z,7.50
2019-02-19T18:02:05.968Z,7.42
2019-02-19T18:03:06.009Z,7.38
2019-02-19T18:04:05.933Z,7.41
2019-02-19T18:05:05.927Z,7.44
2019-02-19T18:06:05.971Z,7.42
2019-02-19T18:07:05.900Z,7.40
2019-02-19T18:08:05.903Z,7.41
2019-02-19T18:09:05.966Z,7.47
2019-02-19T18:10:05.861Z,7.41
2019-02-19T18:11:05.876Z,7.45
2019-02-19T18:12:05.841Z,7.41
2019-02-19T18:13:05.912Z,7.41
2019-02-19T18:14:05.820Z,7.42
2019-02-19T18:15:05.800Z,7.42
2019-02-19T18:16:05.825Z,7.37
2019-02-19T18:17:05.794Z,7.20
2019-02-19T18:18:05.812Z,7.34
2019-02-19T18:19:05.767Z,7.26
2019-02-19T18:20:05.758Z,7.13
2019-02-19T18:21:05.749Z,7.07
2019-02-19T18:22:05.735Z,7.17
2019-02-19T18:23:05.744Z,7.07
2019-02-19T18:24:05.772Z,7.01
2019-02-19T18:25:05.703Z,7.09
2019-02-19T18:26:05.693Z,7.08
2019-02-19T18:27:05.682Z,7.09
2019-02-19T18:28:05.690Z,7.01
2019-02-19T18:29:05.682Z,7.12
2019-02-19T18:30:05.835Z,7.09
2019-02-19T18:31:05.654Z,7.09
2019-02-19T18:32:05.689Z,7.09
2019-02-19T18:33:05.664Z,7.15
2019-02-19T18:34:07.777Z,7.12
2019-02-19T18:35:05.612Z,7.16
2019-02-19T18:36:05.673Z,7.16
2019-02-19T18:37:05.629Z,7.16
2019-02-19T18:38:05.595Z,7.12
2019-02-19T18:39:05.691Z,7.09
2019-02-19T18:40:05.603Z,7.12
2019-02-19T18:41:05.621Z,7.07
2019-02-19T18:42:05.529Z,6.97
2019-02-19T18:43:05.535Z,7.09
2019-02-19T18:44:05.558Z,6.99
2019-02-19T18:45:05.528Z,7.02
2019-02-19T18:46:05.489Z,7.08
2019-02-19T18:47:05.512Z,7.08
2019-02-19T18:48:05.494Z,6.97
2019-02-19T18:49:05.507Z,6.99
2019-02-19T18:50:05.510Z,6.98
2019-02-19T18:51:05.502Z,7.01
2019-02-19T18:52:05.436Z,7.02
2019-02-19T18:53:05.449Z,7.02
2019-02-19T18:54:05.518Z,6.97
2019-02-19T18:55:05.460Z,6.98
2019-02-19T18:56:05.454Z,7.05
2019-02-19T18:57:05.416Z,6.97
2019-02-19T18:58:05.368Z,6.95
2019-02-19T18:59:05.434Z,6.99
2019-02-19T19:00:05.349Z,6.99
2019-02-19T19:01:05.382Z,6.97
2019-02-19T19:02:05.325Z,7.01
2019-02-19T19:03:05.408Z,6.89
2019-02-19T19:04:05.584Z,6.99
2019-02-19T19:05:05.557Z,6.94
2019-02-19T19:06:05.731Z,6.90
2019-02-19T19:07:05.862Z,6.89
2019-02-19T19:08:05.417Z,6.91
2019-02-19T19:09:05.477Z,6.94
2019-02-19T19:10:05.334Z,6.86
2019-02-19T19:11:05.522Z,6.91
2019-02-19T19:12:05.339Z,6.87
2019-02-19T19:13:05.202Z,6.91
2019-02-19T19:14:05.289Z,6.84
2019-02-19T19:15:05.192Z,6.86
2019-02-19T19:16:05.346Z,6.84
2019-02-19T19:17:05.195Z,6.87
2019-02-19T19:18:05.160Z,6.79
2019-02-19T19:19:05.383Z,6.87
2019-02-19T19:20:05.232Z,6.89
2019-02-19T19:21:07.930Z,6.91
2019-02-19T19:22:05.162Z,6.94
2019-02-19T19:23:05.146Z,6.90
2019-02-19T19:24:05.201Z,6.98
2019-02-19T19:25:05.169Z,6.91
2019-02-19T19:26:05.191Z,6.84
2019-02-19T19:27:05.265Z,6.81
2019-02-19T19:28:05.202Z,6.86
2019-02-19T19:29:05.295Z,6.87
2019-02-19T19:30:05.153Z,6.81
2019-02-19T19:31:05.129Z,6.83
2019-02-19T19:32:05.074Z,6.77
2019-02-19T19:33:05.066Z,6.73
2019-02-19T19:34:04.994Z,6.73
2019-02-19T19:35:05.006Z,6.72
2019-02-19T19:36:04.978Z,6.79
2019-02-19T19:37:05.078Z,6.76
2019-02-19T19:38:05.018Z,6.76
2019-02-19T19:39:05.021Z,6.76
2019-02-19T19:40:05.004Z,6.83
2019-02-19T19:41:04.919Z,6.81
2019-02-19T19:42:04.935Z,6.81
2019-02-19T19:43:04.918Z,6.86
2019-02-19T19:44:04.892Z,6.86
2019-02-19T19:45:04.928Z,6.81
2019-02-19T19:46:04.866Z,6.79
2019-02-19T19:47:04.894Z,6.91
2019-02-19T19:48:04.894Z,6.81
2019-02-19T19:49:04.851Z,6.79
2019-02-19T19:50:04.881Z,6.80
2019-02-19T19:51:04.870Z,6.84
2019-02-19T19:52:04.801Z,6.81
2019-02-19T19:53:04.818Z,6.83
2019-02-19T19:54:04.789Z,6.87
2019-02-19T19:55:04.760Z,6.83
2019-02-19T19:56:04.927Z,6.84
2019-02-19T19:57:04.803Z,6.86
2019-02-19T19:58:04.837Z,6.81
2019-02-19T19:59:04.786Z,6.80
2019-02-19T20:00:04.759Z,6.77
2019-02-19T20:01:04.730Z,6.84
2019-02-19T20:02:04.742Z,6.77
2019-02-19T20:03:04.703Z,6.80
2019-02-19T20:04:04.690Z,6.80
2019-02-19T20:05:04.685Z,6.72
2019-02-19T20:06:05.124Z,6.76
2019-02-19T20:07:04.729Z,6.77
2019-02-19T20:08:04.726Z,6.80
2019-02-19T20:09:04.670Z,6.76
2019-02-19T20:10:04.814Z,6.79
2019-02-19T20:11:04.876Z,6.79
2019-02-19T20:12:04.638Z,6.86
2019-02-19T20:13:04.810Z,6.81
2019-02-19T20:14:04.850Z,6.83
2019-02-19T20:15:04.630Z,6.79
2019-02-19T20:16:04.694Z,6.72
2019-02-19T20:17:04.580Z,6.79
2019-02-19T20:18:04.587Z,6.84
2019-02-19T20:19:04.848Z,6.73
2019-02-19T20:20:06.394Z,6.76
2019-02-19T20:21:04.630Z,6.77
2019-02-19T20:22:08.259Z,6.80
2019-02-19T20:23:04.550Z,6.71
2019-02-19T20:24:04.522Z,6.72
2019-02-19T20:25:04.589Z,6.73
2019-02-19T20:26:04.698Z,6.77
2019-02-19T20:27:04.747Z,6.69
2019-02-19T20:28:06.363Z,6.69
2019-02-19T20:29:05.796Z,6.71
2019-02-19T20:30:04.460Z,6.73
2019-02-19T20:31:04.749Z,6.72
2019-02-19T20:32:07.872Z,6.58
2019-02-19T20:33:04.562Z,6.62
2019-02-19T20:34:04.433Z,6.62
2019-02-19T20:35:04.479Z,6.61
2019-02-19T20:36:04.484Z,6.68
2019-02-19T20:37:04.431Z,6.69
2019-02-19T20:38:04.603Z,6.61
2019-02-19T20:39:04.421Z,6.66
2019-02-19T20:40:07.330Z,6.63
2019-02-19T20:41:07.380Z,6.56
2019-02-19T20:42:04.395Z,6.54
2019-02-19T20:43:06.958Z,6.61
2019-02-19T20:44:05.219Z,6.63
2019-02-19T20:45:06.749Z,6.61
2019-02-19T20:46:04.293Z,6.54
2019-02-19T20:47:04.513Z,6.61
2019-02-19T20:48:04.289Z,6.54
2019-02-19T20:49:05.717Z,6.62
2019-02-19T20:50:06.443Z,6.56
2019-02-19T20:51:04.388Z,6.54
2019-02-19T20:52:04.303Z,6.69
2019-02-19T20:53:04.198Z,6.62
2019-02-19T20:54:05.288Z,6.54
2019-02-19T20:55:04.301Z,6.59
2019-02-19T20:56:04.378Z,6.61
2019-02-19T20:57:04.207Z,6.56
2019-02-19T20:58:04.206Z,6.54
2019-02-19T20:59:04.206Z,6.53
2019-02-19T21:00:04.132Z,6.53
2019-02-19T21:01:04.159Z,6.54
2019-02-19T21:02:04.098Z,6.59
2019-02-19T21:03:04.185Z,6.47
2019-02-19T21:04:04.295Z,6.56
2019-02-19T21:05:04.215Z,6.59
2019-02-19T21:06:04.203Z,6.46
2019-02-19T21:07:05.867Z,6.51
2019-02-19T21:08:04.568Z,6.53
2019-02-19T21:09:04.414Z,6.46
2019-02-19T21:11:05.054Z,6.44
2019-02-19T21:12:04.082Z,6.48
2019-02-19T21:13:04.121Z,6.41
2019-02-19T21:14:04.004Z,6.46
2019-02-19T21:15:03.976Z,6.43
2019-02-19T21:16:03.962Z,6.41
2019-02-19T21:17:04.093Z,6.35
2019-02-19T21:18:03.967Z,6.36
2019-02-19T21:19:03.975Z,6.36
2019-02-19T21:20:04.476Z,6.21
2019-02-19T21:21:08.576Z,6.21
2019-02-19T21:22:05.719Z,6.32
2019-02-19T21:23:03.989Z,6.28
2019-02-19T21:24:03.930Z,6.16
2019-02-19T21:25:04.045Z,6.21
2019-02-19T21:26:03.954Z,6.10
2019-02-19T21:27:03.956Z,6.10
2019-02-19T21:28:07.421Z,6.10
2019-02-19T21:29:03.883Z,6.14
2019-02-19T21:30:03.896Z,6.19
2019-02-19T21:31:03.841Z,6.25
2019-02-19T21:32:03.822Z,6.19
2019-02-19T21:33:04.952Z,6.09
2019-02-19T21:34:03.805Z,6.11